Rentiesville, Oklahoma
Current Conditions -  °F | °C
As of 3:53 PM on Monday 22 Dec 2014 (Local Time) from KMKO Reporting Station
Overcast Overcast  
Wind Chill: 54°   Ceiling: 4000
Heat Index: 54°   Visibility: 10mi
Dew Point: 45°   Wind: 12mph
Humidity: 72%   Direction: 280°W
Pressure: 29.57"   Gusts: NA
Location:  35.52°N, 95.49°W
Report Text: KMKO 222153Z AUTO 28010KT 10SM OVC040 12/07 A2957 RMK AO2 SLP013 T01220072
Loading
Personal Weather Stations






























Interactive Weather Map New forecast layout! Learn more

10-Day Weather Forecast

Advertisements
Track Severe Weather on mobile